This is the latest recevied weather packets stored in our database for station/object XE2CT-20. If no packets are shown the sender has not sent any weather packets the latest 10 day(s).
| Time | Temp. | Humidity | Pressure | Rain* | Wind** | Luminosity | Snow |
|---|---|---|---|---|---|---|---|
| 1778136433 | 30.56° C | 61% | 1016 hPa | - | - | - | - |
| 1778135532 | 30.56° C | 57% | 1015 hPa | - | - | - | - |
| 1778134631 | 31.11° C | 59% | 1016 hPa | - | - | - | - |
| 1778133730 | 31.67° C | 60% | 1017 hPa | - | - | - | - |
| 1778132828 | 31.11° C | 59% | 1017 hPa | - | - | - | - |
| 1778131927 | 31.67° C | 54% | 1014 hPa | - | - | - | - |
| 1778131026 | 32.78° C | 52% | 1013 hPa | - | - | - | - |
| 1778130125 | 32.78° C | 49% | 1012 hPa | - | - | - | - |
| 1778129224 | 32.78° C | 54% | 1014 hPa | - | - | - | - |
| 1778128323 | 32.78° C | 55% | 1015 hPa | - | - | - | - |
| 1778127422 | 32.78° C | 56% | 1015 hPa | - | - | - | - |
| 1778126521 | 32.78° C | 53% | 1014 hPa | - | - | - | - |
| 1778125619 | 33.33° C | 55% | 1014 hPa | - | - | - | - |
| 1778124718 | 33.33° C | 54% | 1014 hPa | - | - | - | - |
| 1778123817 | 33.33° C | 53% | 1014 hPa | - | - | - | - |
| 1778122916 | 33.89° C | 50% | 1012 hPa | - | - | - | - |
| 1778122015 | 33.89° C | 47% | 1010 hPa | - | - | - | - |
| 1778121114 | 33.89° C | 48% | 1011 hPa | - | - | - | - |
| 1778120213 | 33.89° C | 44% | 1010 hPa | - | - | - | - |
| 1778119312 | 35° C | 33% | 1004 hPa | - | - | - | - |
| 1778118411 | 35° C | 33% | 1004 hPa | - | - | - | - |
| 1778117510 | 35° C | 32% | 1003 hPa | - | - | - | - |
| 1778116609 | 35.56° C | 34% | 1004 hPa | - | - | - | - |
| 1778115708 | 36.67° C | 29% | 1000 hPa | - | - | - | - |
| 1778114807 | 37.22° C | 28% | 999 hPa | - | - | - | - |
* Rain since midnight (hover to see other rain measurements)
** Current wind speed in m/s (hover to see current wind gust speed)